sensor_id;sensor_type;location;lat;lon;timestamp;P1;durP1;ratioP1;P2;durP2;ratioP2
11283;SDS011;5698;47.332;11.180;2022-09-16T00:00:45;1.83;;;1.60;;
11283;SDS011;5698;47.332;11.180;2022-09-16T00:03:12;2.17;;;1.77;;
11283;SDS011;5698;47.332;11.180;2022-09-16T00:05:41;1.70;;;1.60;;
11283;SDS011;5698;47.332;11.180;2022-09-16T00:08:09;1.57;;;1.47;;
11283;SDS011;5698;47.332;11.180;2022-09-16T00:10:38;2.20;;;1.50;;
11283;SDS011;5698;47.332;11.180;2022-09-16T00:13:07;2.90;;;1.60;;
11283;SDS011;5698;47.332;11.180;2022-09-16T00:15:34;1.60;;;1.50;;
11283;SDS011;5698;47.332;11.180;2022-09-16T00:18:02;1.87;;;1.50;;
11283;SDS011;5698;47.332;11.180;2022-09-16T00:20:29;2.90;;;1.63;;
11283;SDS011;5698;47.332;11.180;2022-09-16T00:22:56;1.73;;;1.63;;
11283;SDS011;5698;47.332;11.180;2022-09-16T00:25:23;2.47;;;1.60;;
11283;SDS011;5698;47.332;11.180;2022-09-16T00:27:51;1.70;;;1.60;;
11283;SDS011;5698;47.332;11.180;2022-09-16T00:30:18;2.20;;;1.80;;
11283;SDS011;5698;47.332;11.180;2022-09-16T00:32:45;3.83;;;1.73;;
11283;SDS011;5698;47.332;11.180;2022-09-16T00:35:12;2.00;;;1.80;;
11283;SDS011;5698;47.332;11.180;2022-09-16T00:37:39;2.27;;;1.70;;
11283;SDS011;5698;47.332;11.180;2022-09-16T00:40:06;2.00;;;1.80;;
11283;SDS011;5698;47.332;11.180;2022-09-16T00:42:37;3.67;;;1.60;;
11283;SDS011;5698;47.332;11.180;2022-09-16T00:45:12;2.77;;;1.87;;
11283;SDS011;5698;47.332;11.180;2022-09-16T00:47:42;2.13;;;1.93;;
11283;SDS011;5698;47.332;11.180;2022-09-16T00:50:14;1.60;;;1.50;;
11283;SDS011;5698;47.332;11.180;2022-09-16T00:52:45;2.00;;;1.80;;
11283;SDS011;5698;47.332;11.180;2022-09-16T00:55:18;1.80;;;1.70;;
11283;SDS011;5698;47.332;11.180;2022-09-16T00:57:48;3.07;;;1.83;;
11283;SDS011;5698;47.332;11.180;2022-09-16T01:00:18;4.30;;;2.80;;
11283;SDS011;5698;47.332;11.180;2022-09-16T01:02:45;2.00;;;1.90;;
11283;SDS011;5698;47.332;11.180;2022-09-16T01:05:14;2.63;;;1.90;;
11283;SDS011;5698;47.332;11.180;2022-09-16T01:07:46;2.30;;;1.80;;
11283;SDS011;5698;47.332;11.180;2022-09-16T01:10:16;3.80;;;2.13;;
11283;SDS011;5698;47.332;11.180;2022-09-16T01:12:45;2.40;;;1.70;;
11283;SDS011;5698;47.332;11.180;2022-09-16T01:15:15;1.80;;;1.70;;
11283;SDS011;5698;47.332;11.180;2022-09-16T01:17:50;1.87;;;1.70;;
11283;SDS011;5698;47.332;11.180;2022-09-16T01:20:40;1.83;;;1.73;;
11283;SDS011;5698;47.332;11.180;2022-09-16T01:24:00;2.67;;;1.90;;
11283;SDS011;5698;47.332;11.180;2022-09-16T01:26:51;1.83;;;1.73;;
11283;SDS011;5698;47.332;11.180;2022-09-16T01:29:57;2.63;;;1.80;;
11283;SDS011;5698;47.332;11.180;2022-09-16T01:32:40;2.87;;;1.97;;
11283;SDS011;5698;47.332;11.180;2022-09-16T01:35:21;1.73;;;1.63;;
11283;SDS011;5698;47.332;11.180;2022-09-16T01:37:56;2.20;;;1.57;;
11283;SDS011;5698;47.332;11.180;2022-09-16T01:40:33;1.33;;;1.23;;
11283;SDS011;5698;47.332;11.180;2022-09-16T01:43:11;1.70;;;1.53;;
11283;SDS011;5698;47.332;11.180;2022-09-16T01:45:45;1.47;;;1.37;;
11283;SDS011;5698;47.332;11.180;2022-09-16T01:48:20;1.90;;;1.60;;
11283;SDS011;5698;47.332;11.180;2022-09-16T01:50:52;1.40;;;1.30;;
11283;SDS011;5698;47.332;11.180;2022-09-16T01:53:26;1.30;;;1.20;;
11283;SDS011;5698;47.332;11.180;2022-09-16T01:55:59;1.80;;;1.30;;
11283;SDS011;5698;47.332;11.180;2022-09-16T01:58:33;1.40;;;1.30;;
11283;SDS011;5698;47.332;11.180;2022-09-16T02:01:08;2.13;;;1.13;;
11283;SDS011;5698;47.332;11.180;2022-09-16T02:03:39;1.70;;;1.60;;
11283;SDS011;5698;47.332;11.180;2022-09-16T02:06:12;2.93;;;1.87;;
11283;SDS011;5698;47.332;11.180;2022-09-16T02:08:44;2.70;;;1.73;;
11283;SDS011;5698;47.332;11.180;2022-09-16T02:11:15;1.80;;;1.70;;
11283;SDS011;5698;47.332;11.180;2022-09-16T02:13:44;1.80;;;1.70;;
11283;SDS011;5698;47.332;11.180;2022-09-16T02:16:15;2.03;;;1.87;;
11283;SDS011;5698;47.332;11.180;2022-09-16T02:18:46;2.17;;;1.97;;
11283;SDS011;5698;47.332;11.180;2022-09-16T02:21:18;2.40;;;2.20;;
11283;SDS011;5698;47.332;11.180;2022-09-16T02:23:49;3.07;;;1.80;;
11283;SDS011;5698;47.332;11.180;2022-09-16T02:26:20;2.33;;;1.87;;
11283;SDS011;5698;47.332;11.180;2022-09-16T02:28:52;2.27;;;2.07;;
11283;SDS011;5698;47.332;11.180;2022-09-16T02:31:21;2.53;;;1.90;;
11283;SDS011;5698;47.332;11.180;2022-09-16T02:33:55;2.43;;;2.23;;
11283;SDS011;5698;47.332;11.180;2022-09-16T02:36:25;2.20;;;2.00;;
11283;SDS011;5698;47.332;11.180;2022-09-16T02:38:56;2.00;;;1.90;;
11283;SDS011;5698;47.332;11.180;2022-09-16T02:41:26;2.17;;;1.97;;
11283;SDS011;5698;47.332;11.180;2022-09-16T02:43:53;2.77;;;2.10;;
11283;SDS011;5698;47.332;11.180;2022-09-16T02:46:22;2.10;;;1.90;;
11283;SDS011;5698;47.332;11.180;2022-09-16T02:48:57;2.10;;;2.00;;
11283;SDS011;5698;47.332;11.180;2022-09-16T02:51:31;2.10;;;2.00;;
11283;SDS011;5698;47.332;11.180;2022-09-16T02:54:04;2.00;;;1.90;;
11283;SDS011;5698;47.332;11.180;2022-09-16T02:56:37;3.37;;;2.03;;
11283;SDS011;5698;47.332;11.180;2022-09-16T02:59:07;2.40;;;2.20;;
11283;SDS011;5698;47.332;11.180;2022-09-16T03:01:37;3.10;;;1.80;;
11283;SDS011;5698;47.332;11.180;2022-09-16T03:04:08;2.53;;;1.73;;
11283;SDS011;5698;47.332;11.180;2022-09-16T03:06:36;2.00;;;1.90;;
11283;SDS011;5698;47.332;11.180;2022-09-16T03:09:04;1.60;;;1.50;;
11283;SDS011;5698;47.332;11.180;2022-09-16T03:11:39;2.20;;;1.60;;
11283;SDS011;5698;47.332;11.180;2022-09-16T03:14:24;1.57;;;1.47;;
11283;SDS011;5698;47.332;11.180;2022-09-16T03:17:14;1.93;;;1.80;;
11283;SDS011;5698;47.332;11.180;2022-09-16T03:19:54;2.30;;;1.80;;
11283;SDS011;5698;47.332;11.180;2022-09-16T03:22:31;2.87;;;1.90;;
11283;SDS011;5698;47.332;11.180;2022-09-16T03:25:09;2.07;;;1.93;;
11283;SDS011;5698;47.332;11.180;2022-09-16T03:27:45;2.13;;;1.80;;
11283;SDS011;5698;47.332;11.180;2022-09-16T03:30:17;2.20;;;2.00;;
11283;SDS011;5698;47.332;11.180;2022-09-16T03:32:46;2.50;;;2.30;;
11283;SDS011;5698;47.332;11.180;2022-09-16T03:35:20;2.00;;;1.80;;
11283;SDS011;5698;47.332;11.180;2022-09-16T03:37:52;4.17;;;2.00;;
11283;SDS011;5698;47.332;11.180;2022-09-16T03:40:21;3.20;;;2.00;;
11283;SDS011;5698;47.332;11.180;2022-09-16T03:42:49;2.20;;;2.00;;
11283;SDS011;5698;47.332;11.180;2022-09-16T03:45:17;2.53;;;2.10;;
11283;SDS011;5698;47.332;11.180;2022-09-16T03:47:45;2.43;;;2.23;;
11283;SDS011;5698;47.332;11.180;2022-09-16T03:50:15;2.00;;;1.90;;
11283;SDS011;5698;47.332;11.180;2022-09-16T03:52:44;2.60;;;2.40;;
11283;SDS011;5698;47.332;11.180;2022-09-16T03:55:11;2.53;;;2.00;;
11283;SDS011;5698;47.332;11.180;2022-09-16T03:57:38;2.00;;;1.90;;
11283;SDS011;5698;47.332;11.180;2022-09-16T04:00:06;2.17;;;1.70;;
11283;SDS011;5698;47.332;11.180;2022-09-16T04:02:34;3.93;;;2.07;;
11283;SDS011;5698;47.332;11.180;2022-09-16T04:05:02;2.87;;;2.07;;
11283;SDS011;5698;47.332;11.180;2022-09-16T04:07:30;2.40;;;2.20;;
11283;SDS011;5698;47.332;11.180;2022-09-16T04:09:59;2.23;;;1.90;;
11283;SDS011;5698;47.332;11.180;2022-09-16T04:12:26;2.40;;;2.20;;
11283;SDS011;5698;47.332;11.180;2022-09-16T04:14:53;3.70;;;2.63;;
11283;SDS011;5698;47.332;11.180;2022-09-16T04:17:20;3.70;;;2.37;;
11283;SDS011;5698;47.332;11.180;2022-09-16T04:19:47;3.30;;;2.50;;
11283;SDS011;5698;47.332;11.180;2022-09-16T04:22:15;2.40;;;2.27;;
11283;SDS011;5698;47.332;11.180;2022-09-16T04:24:42;2.53;;;2.33;;
11283;SDS011;5698;47.332;11.180;2022-09-16T04:27:10;2.27;;;2.07;;
11283;SDS011;5698;47.332;11.180;2022-09-16T04:29:37;1.77;;;1.67;;
11283;SDS011;5698;47.332;11.180;2022-09-16T04:32:04;2.23;;;1.77;;
11283;SDS011;5698;47.332;11.180;2022-09-16T04:34:31;1.60;;;1.50;;
11283;SDS011;5698;47.332;11.180;2022-09-16T04:36:58;1.47;;;1.37;;
11283;SDS011;5698;47.332;11.180;2022-09-16T04:39:25;1.10;;;1.10;;
11283;SDS011;5698;47.332;11.180;2022-09-16T04:41:52;1.00;;;1.00;;
11283;SDS011;5698;47.332;11.180;2022-09-16T04:44:21;1.50;;;1.40;;
11283;SDS011;5698;47.332;11.180;2022-09-16T04:46:48;1.37;;;1.27;;
11283;SDS011;5698;47.332;11.180;2022-09-16T04:49:14;1.30;;;1.20;;
11283;SDS011;5698;47.332;11.180;2022-09-16T04:51:42;1.00;;;1.00;;
11283;SDS011;5698;47.332;11.180;2022-09-16T04:54:09;1.30;;;1.20;;
11283;SDS011;5698;47.332;11.180;2022-09-16T04:56:36;1.30;;;1.20;;
11283;SDS011;5698;47.332;11.180;2022-09-16T04:59:04;1.70;;;1.40;;
11283;SDS011;5698;47.332;11.180;2022-09-16T05:01:33;2.63;;;2.43;;
11283;SDS011;5698;47.332;11.180;2022-09-16T05:04:03;1.50;;;1.40;;
11283;SDS011;5698;47.332;11.180;2022-09-16T05:06:32;1.30;;;1.20;;
11283;SDS011;5698;47.332;11.180;2022-09-16T05:09:00;1.47;;;1.00;;
11283;SDS011;5698;47.332;11.180;2022-09-16T05:11:28;1.10;;;1.00;;
11283;SDS011;5698;47.332;11.180;2022-09-16T05:13:57;1.80;;;1.70;;
11283;SDS011;5698;47.332;11.180;2022-09-16T05:16:24;1.40;;;1.30;;
11283;SDS011;5698;47.332;11.180;2022-09-16T05:18:54;1.40;;;1.30;;
11283;SDS011;5698;47.332;11.180;2022-09-16T05:21:23;1.70;;;1.60;;
11283;SDS011;5698;47.332;11.180;2022-09-16T05:23:52;1.30;;;1.20;;
11283;SDS011;5698;47.332;11.180;2022-09-16T05:26:20;1.70;;;1.60;;
11283;SDS011;5698;47.332;11.180;2022-09-16T05:28:49;2.00;;;1.80;;
11283;SDS011;5698;47.332;11.180;2022-09-16T05:31:17;1.90;;;1.80;;
11283;SDS011;5698;47.332;11.180;2022-09-16T05:33:46;1.10;;;1.10;;
11283;SDS011;5698;47.332;11.180;2022-09-16T05:36:20;2.30;;;1.20;;
11283;SDS011;5698;47.332;11.180;2022-09-16T05:38:48;1.10;;;1.00;;
11283;SDS011;5698;47.332;11.180;2022-09-16T05:41:15;1.40;;;1.30;;
11283;SDS011;5698;47.332;11.180;2022-09-16T05:43:42;3.33;;;1.40;;
11283;SDS011;5698;47.332;11.180;2022-09-16T05:46:10;2.67;;;2.20;;
11283;SDS011;5698;47.332;11.180;2022-09-16T05:48:42;2.60;;;1.20;;
11283;SDS011;5698;47.332;11.180;2022-09-16T05:51:09;3.37;;;1.50;;
11283;SDS011;5698;47.332;11.180;2022-09-16T05:53:41;1.47;;;1.30;;
11283;SDS011;5698;47.332;11.180;2022-09-16T05:56:09;1.23;;;1.17;;
11283;SDS011;5698;47.332;11.180;2022-09-16T05:58:37;1.20;;;1.10;;
11283;SDS011;5698;47.332;11.180;2022-09-16T06:01:05;2.07;;;1.10;;
11283;SDS011;5698;47.332;11.180;2022-09-16T06:03:34;1.20;;;1.10;;
11283;SDS011;5698;47.332;11.180;2022-09-16T06:06:03;1.40;;;1.30;;
11283;SDS011;5698;47.332;11.180;2022-09-16T06:08:32;0.90;;;0.90;;
11283;SDS011;5698;47.332;11.180;2022-09-16T06:11:02;1.30;;;1.20;;
11283;SDS011;5698;47.332;11.180;2022-09-16T06:13:31;1.13;;;1.10;;
11283;SDS011;5698;47.332;11.180;2022-09-16T06:15:58;1.53;;;1.10;;
11283;SDS011;5698;47.332;11.180;2022-09-16T06:18:26;1.60;;;1.50;;
11283;SDS011;5698;47.332;11.180;2022-09-16T06:20:54;1.30;;;1.20;;
11283;SDS011;5698;47.332;11.180;2022-09-16T06:23:22;8.73;;;7.93;;
11283;SDS011;5698;47.332;11.180;2022-09-16T06:25:57;28.10;;;25.50;;
11283;SDS011;5698;47.332;11.180;2022-09-16T06:28:26;64.73;;;57.73;;
11283;SDS011;5698;47.332;11.180;2022-09-16T06:31:00;47.63;;;42.47;;
11283;SDS011;5698;47.332;11.180;2022-09-16T06:33:29;4.40;;;3.90;;
11283;SDS011;5698;47.332;11.180;2022-09-16T06:35:56;3.20;;;1.90;;
11283;SDS011;5698;47.332;11.180;2022-09-16T06:38:23;2.00;;;1.90;;
11283;SDS011;5698;47.332;11.180;2022-09-16T06:40:50;1.30;;;1.20;;
11283;SDS011;5698;47.332;11.180;2022-09-16T06:43:17;1.23;;;1.10;;
11283;SDS011;5698;47.332;11.180;2022-09-16T06:45:45;1.50;;;1.17;;
11283;SDS011;5698;47.332;11.180;2022-09-16T06:48:12;1.47;;;1.37;;
11283;SDS011;5698;47.332;11.180;2022-09-16T06:50:39;1.20;;;1.10;;
11283;SDS011;5698;47.332;11.180;2022-09-16T06:53:06;1.00;;;1.00;;
11283;SDS011;5698;47.332;11.180;2022-09-16T06:55:33;1.30;;;1.20;;
11283;SDS011;5698;47.332;11.180;2022-09-16T06:58:00;1.53;;;1.37;;
11283;SDS011;5698;47.332;11.180;2022-09-16T07:00:27;1.40;;;1.30;;
11283;SDS011;5698;47.332;11.180;2022-09-16T07:02:56;1.23;;;1.13;;
11283;SDS011;5698;47.332;11.180;2022-09-16T07:05:23;1.00;;;1.00;;
11283;SDS011;5698;47.332;11.180;2022-09-16T07:07:50;1.30;;;1.20;;
11283;SDS011;5698;47.332;11.180;2022-09-16T07:10:18;1.70;;;1.10;;
11283;SDS011;5698;47.332;11.180;2022-09-16T07:12:44;1.40;;;1.30;;
11283;SDS011;5698;47.332;11.180;2022-09-16T07:15:11;0.90;;;0.90;;
11283;SDS011;5698;47.332;11.180;2022-09-16T07:17:38;1.20;;;1.10;;
11283;SDS011;5698;47.332;11.180;2022-09-16T07:20:07;1.20;;;1.10;;
11283;SDS011;5698;47.332;11.180;2022-09-16T07:22:35;1.27;;;1.17;;
11283;SDS011;5698;47.332;11.180;2022-09-16T07:25:02;1.00;;;1.00;;
11283;SDS011;5698;47.332;11.180;2022-09-16T07:27:29;1.07;;;1.03;;
11283;SDS011;5698;47.332;11.180;2022-09-16T07:29:56;1.53;;;1.20;;
11283;SDS011;5698;47.332;11.180;2022-09-16T07:32:23;3.03;;;1.00;;
11283;SDS011;5698;47.332;11.180;2022-09-16T07:34:50;2.97;;;1.07;;
11283;SDS011;5698;47.332;11.180;2022-09-16T07:37:19;1.10;;;1.00;;
11283;SDS011;5698;47.332;11.180;2022-09-16T07:39:46;0.97;;;0.97;;
11283;SDS011;5698;47.332;11.180;2022-09-16T07:42:14;2.07;;;0.90;;
11283;SDS011;5698;47.332;11.180;2022-09-16T07:44:41;0.80;;;0.80;;
11283;SDS011;5698;47.332;11.180;2022-09-16T07:47:08;2.40;;;1.13;;
11283;SDS011;5698;47.332;11.180;2022-09-16T07:49:35;11.63;;;8.37;;
11283;SDS011;5698;47.332;11.180;2022-09-16T07:52:02;1.87;;;1.77;;
11283;SDS011;5698;47.332;11.180;2022-09-16T07:54:30;3.70;;;3.27;;
11283;SDS011;5698;47.332;11.180;2022-09-16T07:56:57;2.93;;;2.70;;
11283;SDS011;5698;47.332;11.180;2022-09-16T07:59:25;2.90;;;2.70;;
11283;SDS011;5698;47.332;11.180;2022-09-16T08:01:52;2.70;;;1.70;;
11283;SDS011;5698;47.332;11.180;2022-09-16T08:04:19;1.90;;;1.23;;
11283;SDS011;5698;47.332;11.180;2022-09-16T08:06:46;1.60;;;1.50;;
11283;SDS011;5698;47.332;11.180;2022-09-16T08:09:14;1.40;;;1.30;;
11283;SDS011;5698;47.332;11.180;2022-09-16T08:11:42;2.77;;;1.17;;
11283;SDS011;5698;47.332;11.180;2022-09-16T08:14:09;1.17;;;1.07;;
11283;SDS011;5698;47.332;11.180;2022-09-16T08:16:36;1.80;;;1.07;;
11283;SDS011;5698;47.332;11.180;2022-09-16T08:19:03;1.73;;;1.47;;
11283;SDS011;5698;47.332;11.180;2022-09-16T08:21:30;1.30;;;1.20;;
11283;SDS011;5698;47.332;11.180;2022-09-16T08:23:57;1.50;;;1.30;;
11283;SDS011;5698;47.332;11.180;2022-09-16T08:26:24;1.10;;;1.00;;
11283;SDS011;5698;47.332;11.180;2022-09-16T08:28:53;1.13;;;1.03;;
11283;SDS011;5698;47.332;11.180;2022-09-16T08:31:20;1.20;;;1.10;;
11283;SDS011;5698;47.332;11.180;2022-09-16T08:33:47;1.20;;;1.10;;
11283;SDS011;5698;47.332;11.180;2022-09-16T08:36:14;1.40;;;1.30;;
11283;SDS011;5698;47.332;11.180;2022-09-16T08:38:43;1.40;;;1.30;;
11283;SDS011;5698;47.332;11.180;2022-09-16T08:44:15;1.40;;;1.30;;
11283;SDS011;5698;47.332;11.180;2022-09-16T08:46:50;1.40;;;1.30;;
11283;SDS011;5698;47.332;11.180;2022-09-16T08:49:20;1.60;;;1.47;;
11283;SDS011;5698;47.332;11.180;2022-09-16T08:51:54;1.60;;;1.43;;
11283;SDS011;5698;47.332;11.180;2022-09-16T08:54:24;4.70;;;2.83;;
11283;SDS011;5698;47.332;11.180;2022-09-16T08:56:54;2.23;;;1.80;;
11283;SDS011;5698;47.332;11.180;2022-09-16T08:59:26;2.50;;;1.60;;
11283;SDS011;5698;47.332;11.180;2022-09-16T09:02:01;1.40;;;1.30;;
11283;SDS011;5698;47.332;11.180;2022-09-16T09:04:38;1.27;;;1.13;;
11283;SDS011;5698;47.332;11.180;2022-09-16T09:07:07;3.53;;;1.30;;
11283;SDS011;5698;47.332;11.180;2022-09-16T09:09:46;1.80;;;1.30;;
11283;SDS011;5698;47.332;11.180;2022-09-16T09:12:26;8.43;;;7.67;;
11283;SDS011;5698;47.332;11.180;2022-09-16T09:15:07;1.60;;;1.47;;
11283;SDS011;5698;47.332;11.180;2022-09-16T09:17:50;1.97;;;1.87;;
11283;SDS011;5698;47.332;11.180;2022-09-16T09:20:28;3.10;;;2.10;;
11283;SDS011;5698;47.332;11.180;2022-09-16T09:23:07;2.23;;;2.03;;
11283;SDS011;5698;47.332;11.180;2022-09-16T09:25:43;2.20;;;2.00;;
11283;SDS011;5698;47.332;11.180;2022-09-16T09:28:38;2.10;;;1.90;;
11283;SDS011;5698;47.332;11.180;2022-09-16T09:31:21;4.13;;;1.80;;
11283;SDS011;5698;47.332;11.180;2022-09-16T09:33:53;1.70;;;1.60;;
11283;SDS011;5698;47.332;11.180;2022-09-16T09:36:35;2.00;;;1.90;;
11283;SDS011;5698;47.332;11.180;2022-09-16T09:39:20;1.60;;;1.50;;
11283;SDS011;5698;47.332;11.180;2022-09-16T09:41:58;2.73;;;1.67;;
11283;SDS011;5698;47.332;11.180;2022-09-16T09:44:40;1.70;;;1.60;;
11283;SDS011;5698;47.332;11.180;2022-09-16T09:47:15;1.80;;;1.70;;
11283;SDS011;5698;47.332;11.180;2022-09-16T09:49:49;1.60;;;1.50;;
11283;SDS011;5698;47.332;11.180;2022-09-16T09:52:18;1.87;;;1.50;;
11283;SDS011;5698;47.332;11.180;2022-09-16T09:54:50;2.10;;;1.53;;
11283;SDS011;5698;47.332;11.180;2022-09-16T09:57:21;3.03;;;1.60;;
11283;SDS011;5698;47.332;11.180;2022-09-16T09:59:57;1.70;;;1.60;;
11283;SDS011;5698;47.332;11.180;2022-09-16T10:02:38;1.63;;;1.50;;
11283;SDS011;5698;47.332;11.180;2022-09-16T10:05:08;2.77;;;2.00;;
11283;SDS011;5698;47.332;11.180;2022-09-16T10:07:45;2.80;;;1.50;;
11283;SDS011;5698;47.332;11.180;2022-09-16T10:10:15;1.50;;;1.40;;
11283;SDS011;5698;47.332;11.180;2022-09-16T10:12:44;2.07;;;1.50;;
11283;SDS011;5698;47.332;11.180;2022-09-16T10:15:19;1.70;;;1.60;;
11283;SDS011;5698;47.332;11.180;2022-09-16T10:17:49;1.90;;;1.67;;
11283;SDS011;5698;47.332;11.180;2022-09-16T10:20:21;1.50;;;1.40;;
11283;SDS011;5698;47.332;11.180;2022-09-16T10:22:54;1.70;;;1.60;;
11283;SDS011;5698;47.332;11.180;2022-09-16T10:25:25;2.57;;;1.30;;
11283;SDS011;5698;47.332;11.180;2022-09-16T10:27:56;1.60;;;1.50;;
11283;SDS011;5698;47.332;11.180;2022-09-16T10:30:25;1.57;;;1.47;;
11283;SDS011;5698;47.332;11.180;2022-09-16T10:32:59;1.70;;;1.60;;
11283;SDS011;5698;47.332;11.180;2022-09-16T10:35:29;1.43;;;1.33;;
11283;SDS011;5698;47.332;11.180;2022-09-16T10:38:00;1.53;;;1.43;;
11283;SDS011;5698;47.332;11.180;2022-09-16T10:40:29;2.67;;;1.43;;
11283;SDS011;5698;47.332;11.180;2022-09-16T10:42:58;1.77;;;1.67;;
11283;SDS011;5698;47.332;11.180;2022-09-16T10:45:28;1.50;;;1.30;;
11283;SDS011;5698;47.332;11.180;2022-09-16T10:47:57;1.60;;;1.40;;
11283;SDS011;5698;47.332;11.180;2022-09-16T10:50:27;1.53;;;1.37;;
11283;SDS011;5698;47.332;11.180;2022-09-16T10:52:54;2.97;;;1.60;;
11283;SDS011;5698;47.332;11.180;2022-09-16T10:55:22;1.50;;;1.37;;
11283;SDS011;5698;47.332;11.180;2022-09-16T10:57:52;1.67;;;1.50;;
11283;SDS011;5698;47.332;11.180;2022-09-16T11:00:21;2.27;;;1.70;;
11283;SDS011;5698;47.332;11.180;2022-09-16T11:06:08;1.70;;;1.60;;
11283;SDS011;5698;47.332;11.180;2022-09-16T11:08:48;3.00;;;1.70;;
11283;SDS011;5698;47.332;11.180;2022-09-16T11:11:25;1.70;;;1.60;;
11283;SDS011;5698;47.332;11.180;2022-09-16T11:14:03;1.53;;;1.43;;
11283;SDS011;5698;47.332;11.180;2022-09-16T11:16:44;2.33;;;1.70;;
11283;SDS011;5698;47.332;11.180;2022-09-16T11:19:22;1.80;;;1.70;;
11283;SDS011;5698;47.332;11.180;2022-09-16T11:22:01;2.17;;;1.63;;
11283;SDS011;5698;47.332;11.180;2022-09-16T11:24:42;2.77;;;2.13;;
11283;SDS011;5698;47.332;11.180;2022-09-16T11:27:18;5.97;;;2.33;;
11283;SDS011;5698;47.332;11.180;2022-09-16T11:32:44;2.73;;;1.80;;
11283;SDS011;5698;47.332;11.180;2022-09-16T11:35:32;1.87;;;1.47;;
11283;SDS011;5698;47.332;11.180;2022-09-16T11:38:12;1.80;;;1.70;;
11283;SDS011;5698;47.332;11.180;2022-09-16T11:40:47;1.63;;;1.53;;
11283;SDS011;5698;47.332;11.180;2022-09-16T11:43:37;1.83;;;1.73;;
11283;SDS011;5698;47.332;11.180;2022-09-16T11:46:21;1.83;;;1.70;;
11283;SDS011;5698;47.332;11.180;2022-09-16T11:49:00;2.17;;;1.97;;
11283;SDS011;5698;47.332;11.180;2022-09-16T11:51:47;5.13;;;2.30;;
11283;SDS011;5698;47.332;11.180;2022-09-16T11:54:31;4.30;;;1.97;;
11283;SDS011;5698;47.332;11.180;2022-09-16T11:57:11;2.17;;;1.97;;
11283;SDS011;5698;47.332;11.180;2022-09-16T11:59:44;1.93;;;1.83;;
11283;SDS011;5698;47.332;11.180;2022-09-16T12:02:16;2.10;;;1.90;;
11283;SDS011;5698;47.332;11.180;2022-09-16T12:04:49;2.30;;;1.83;;
11283;SDS011;5698;47.332;11.180;2022-09-16T12:07:22;2.67;;;2.30;;
11283;SDS011;5698;47.332;11.180;2022-09-16T12:09:55;2.73;;;2.20;;
11283;SDS011;5698;47.332;11.180;2022-09-16T12:12:27;2.73;;;2.10;;
11283;SDS011;5698;47.332;11.180;2022-09-16T12:14:57;3.13;;;2.30;;
11283;SDS011;5698;47.332;11.180;2022-09-16T12:17:30;2.30;;;2.10;;
11283;SDS011;5698;47.332;11.180;2022-09-16T12:19:59;2.60;;;2.40;;
11283;SDS011;5698;47.332;11.180;2022-09-16T12:22:32;3.73;;;2.30;;
11283;SDS011;5698;47.332;11.180;2022-09-16T12:25:05;2.60;;;2.10;;
11283;SDS011;5698;47.332;11.180;2022-09-16T12:27:37;3.40;;;2.57;;
11283;SDS011;5698;47.332;11.180;2022-09-16T12:30:12;3.83;;;2.60;;
11283;SDS011;5698;47.332;11.180;2022-09-16T12:32:44;2.40;;;2.20;;
11283;SDS011;5698;47.332;11.180;2022-09-16T12:35:19;2.43;;;2.10;;
11283;SDS011;5698;47.332;11.180;2022-09-16T12:37:50;1.97;;;1.87;;
11283;SDS011;5698;47.332;11.180;2022-09-16T12:40:20;2.50;;;2.30;;
11283;SDS011;5698;47.332;11.180;2022-09-16T12:45:47;2.30;;;2.10;;
11283;SDS011;5698;47.332;11.180;2022-09-16T12:48:39;3.10;;;2.17;;
11283;SDS011;5698;47.332;11.180;2022-09-16T12:57:45;2.57;;;1.90;;
11283;SDS011;5698;47.332;11.180;2022-09-16T13:00:22;2.10;;;2.00;;
11283;SDS011;5698;47.332;11.180;2022-09-16T13:02:51;2.43;;;2.23;;
11283;SDS011;5698;47.332;11.180;2022-09-16T13:05:24;4.13;;;1.90;;
11283;SDS011;5698;47.332;11.180;2022-09-16T13:07:54;2.07;;;1.83;;
11283;SDS011;5698;47.332;11.180;2022-09-16T13:10:28;2.50;;;2.30;;
11283;SDS011;5698;47.332;11.180;2022-09-16T13:12:59;2.40;;;2.20;;
11283;SDS011;5698;47.332;11.180;2022-09-16T13:15:28;2.43;;;2.13;;
11283;SDS011;5698;47.332;11.180;2022-09-16T13:18:06;2.80;;;2.50;;
11283;SDS011;5698;47.332;11.180;2022-09-16T13:20:34;3.37;;;1.93;;
11283;SDS011;5698;47.332;11.180;2022-09-16T13:23:06;2.43;;;2.23;;
11283;SDS011;5698;47.332;11.180;2022-09-16T13:25:42;2.43;;;2.20;;
11283;SDS011;5698;47.332;11.180;2022-09-16T13:28:34;2.33;;;2.13;;
11283;SDS011;5698;47.332;11.180;2022-09-16T13:31:15;2.53;;;2.33;;
11283;SDS011;5698;47.332;11.180;2022-09-16T13:33:44;3.47;;;2.30;;
11283;SDS011;5698;47.332;11.180;2022-09-16T13:36:14;2.93;;;2.27;;
11283;SDS011;5698;47.332;11.180;2022-09-16T13:38:54;2.13;;;1.90;;
11283;SDS011;5698;47.332;11.180;2022-09-16T13:41:30;1.83;;;1.73;;
11283;SDS011;5698;47.332;11.180;2022-09-16T13:44:01;2.40;;;2.20;;
11283;SDS011;5698;47.332;11.180;2022-09-16T13:46:49;2.30;;;2.10;;
11283;SDS011;5698;47.332;11.180;2022-09-16T13:49:18;3.70;;;3.07;;
11283;SDS011;5698;47.332;11.180;2022-09-16T13:51:48;2.63;;;2.20;;
11283;SDS011;5698;47.332;11.180;2022-09-16T13:54:17;3.37;;;2.30;;
11283;SDS011;5698;47.332;11.180;2022-09-16T13:56:58;2.90;;;1.63;;
11283;SDS011;5698;47.332;11.180;2022-09-16T13:59:57;2.03;;;1.57;;
11283;SDS011;5698;47.332;11.180;2022-09-16T14:02:33;2.33;;;1.70;;
11283;SDS011;5698;47.332;11.180;2022-09-16T14:05:12;2.00;;;1.60;;
11283;SDS011;5698;47.332;11.180;2022-09-16T14:08:02;1.63;;;1.53;;
11283;SDS011;5698;47.332;11.180;2022-09-16T14:10:38;1.60;;;1.37;;
11283;SDS011;5698;47.332;11.180;2022-09-16T14:13:16;1.87;;;1.50;;
11283;SDS011;5698;47.332;11.180;2022-09-16T14:15:46;1.63;;;1.53;;
11283;SDS011;5698;47.332;11.180;2022-09-16T14:18:17;1.90;;;1.80;;
11283;SDS011;5698;47.332;11.180;2022-09-16T14:20:58;2.10;;;1.07;;
11283;SDS011;5698;47.332;11.180;2022-09-16T14:23:27;3.53;;;1.47;;
11283;SDS011;5698;47.332;11.180;2022-09-16T14:25:55;1.57;;;1.30;;
11283;SDS011;5698;47.332;11.180;2022-09-16T14:28:23;2.17;;;1.30;;
11283;SDS011;5698;47.332;11.180;2022-09-16T14:30:54;1.20;;;1.10;;
11283;SDS011;5698;47.332;11.180;2022-09-16T14:33:23;1.10;;;1.00;;
11283;SDS011;5698;47.332;11.180;2022-09-16T14:35:53;1.50;;;1.40;;
11283;SDS011;5698;47.332;11.180;2022-09-16T14:38:22;1.93;;;1.00;;
11283;SDS011;5698;47.332;11.180;2022-09-16T14:40:56;1.73;;;1.40;;
11283;SDS011;5698;47.332;11.180;2022-09-16T14:43:23;1.20;;;1.10;;
11283;SDS011;5698;47.332;11.180;2022-09-16T14:45:51;1.40;;;1.30;;
11283;SDS011;5698;47.332;11.180;2022-09-16T14:48:23;1.47;;;1.37;;
11283;SDS011;5698;47.332;11.180;2022-09-16T14:50:55;1.00;;;0.90;;
11283;SDS011;5698;47.332;11.180;2022-09-16T14:53:24;2.40;;;1.90;;
11283;SDS011;5698;47.332;11.180;2022-09-16T14:55:52;3.10;;;1.90;;
11283;SDS011;5698;47.332;11.180;2022-09-16T14:58:20;2.77;;;2.10;;
11283;SDS011;5698;47.332;11.180;2022-09-16T15:00:50;2.73;;;2.53;;
11283;SDS011;5698;47.332;11.180;2022-09-16T15:03:22;1.40;;;1.30;;
11283;SDS011;5698;47.332;11.180;2022-09-16T15:05:53;3.17;;;2.37;;
11283;SDS011;5698;47.332;11.180;2022-09-16T15:08:24;1.20;;;1.00;;
11283;SDS011;5698;47.332;11.180;2022-09-16T15:10:55;1.43;;;1.30;;
11283;SDS011;5698;47.332;11.180;2022-09-16T15:13:24;1.43;;;1.10;;
11283;SDS011;5698;47.332;11.180;2022-09-16T15:15:55;1.37;;;1.10;;
11283;SDS011;5698;47.332;11.180;2022-09-16T15:18:26;0.90;;;0.90;;
11283;SDS011;5698;47.332;11.180;2022-09-16T15:20:59;1.10;;;0.70;;
11283;SDS011;5698;47.332;11.180;2022-09-16T15:23:30;0.70;;;0.70;;
11283;SDS011;5698;47.332;11.180;2022-09-16T15:25:58;1.33;;;0.70;;
11283;SDS011;5698;47.332;11.180;2022-09-16T15:28:35;0.70;;;0.70;;
11283;SDS011;5698;47.332;11.180;2022-09-16T15:31:04;0.73;;;0.53;;
11283;SDS011;5698;47.332;11.180;2022-09-16T15:33:32;4.43;;;3.53;;